Time;durP1;ratioP1;P1;durP2;ratioP2;P2;SDS_P1;SDS_P2;PMS_P1;PMS_P2;Temp;Humidity;BMP_temperature;BMP_pressure;BME280_temperature;BME280_humidity;BME280_pressure;Samples;Min_cycle;Max_cycle;Signal;HPM_P1;HPM_P2
2022/08/30 00:03:17;;;;;;;4.33;3.90;;;20.70;99.90;;;;;;6224994;28;20229;-67
2022/08/30 00:06:21;;;;;;;5.50;5.10;;;20.70;99.90;;;;;;6225041;28;20233;-67
2022/08/30 00:09:25;;;;;;;6.10;5.03;;;20.70;99.90;;;;;;6223071;28;20673;-67
2022/08/30 00:12:31;;;;;;;5.20;4.80;;;20.70;99.90;;;;;;6223383;28;20616;-68
2022/08/30 00:15:35;;;;;;;6.30;5.80;;;20.60;99.90;;;;;;6223143;28;20240;-68
2022/08/30 00:18:39;;;;;;;7.17;5.53;;;20.60;99.90;;;;;;6223667;28;20310;-67
2022/08/30 00:21:42;;;;;;;5.13;4.73;;;20.60;99.90;;;;;;6223244;28;20256;-68
2022/08/30 00:24:45;;;;;;;4.73;4.30;;;20.60;99.90;;;;;;6223338;28;20233;-68
2022/08/30 00:27:50;;;;;;;5.80;4.43;;;20.60;99.90;;;;;;6224650;28;20233;-67
2022/08/30 00:30:53;;;;;;;6.13;4.40;;;20.50;99.90;;;;;;6224998;28;20225;-67
2022/08/30 00:33:56;;;;;;;8.03;5.20;;;20.40;99.90;;;;;;6224788;28;20699;-67
2022/08/30 00:36:59;;;;;;;5.93;5.30;;;20.30;99.90;;;;;;6224487;28;20555;-68
2022/08/30 00:40:04;;;;;;;5.20;4.70;;;20.30;99.90;;;;;;6224690;28;20235;-67
2022/08/30 00:43:12;;;;;;;5.60;4.93;;;20.30;99.90;;;;;;6222399;28;20237;-68
2022/08/30 00:46:16;;;;;;;5.20;4.70;;;20.30;99.90;;;;;;6222297;28;20614;-68
2022/08/30 00:49:19;;;;;;;5.57;5.17;;;20.30;99.90;;;;;;6222377;28;20672;-68
2022/08/30 00:52:24;;;;;;;5.80;4.80;;;20.40;99.90;;;;;;6223263;28;20289;-68
2022/08/30 00:55:27;;;;;;;5.40;4.90;;;20.40;99.90;;;;;;6222376;28;20352;-67
2022/08/30 00:58:35;;;;;;;6.63;4.90;;;20.50;99.90;;;;;;6222704;28;20242;-68
2022/08/30 01:01:39;;;;;;;5.17;4.67;;;20.50;99.90;;;;;;6220034;28;20229;-68
2022/08/30 01:04:44;;;;;;;5.63;5.13;;;20.50;99.90;;;;;;6224376;28;20315;-67
2022/08/30 01:07:47;;;;;;;6.63;5.03;;;20.40;99.90;;;;;;6224169;28;20236;-68
2022/08/30 01:10:51;;;;;;;4.73;4.33;;;20.40;99.90;;;;;;6224410;28;20244;-68
2022/08/30 01:13:56;;;;;;;5.07;4.57;;;20.30;99.90;;;;;;6224369;28;20233;-68
2022/08/30 01:17:01;;;;;;;5.50;5.00;;;20.20;99.90;;;;;;6227434;28;20225;-68
2022/08/30 01:20:07;;;;;;;6.03;5.43;;;20.20;99.90;;;;;;6227937;28;20201;-68
2022/08/30 01:23:14;;;;;;;4.50;4.10;;;20.20;99.90;;;;;;6227681;28;20202;-68
2022/08/30 01:26:20;;;;;;;5.20;4.80;;;20.20;99.90;;;;;;6229420;28;20233;-68
2022/08/30 01:29:26;;;;;;;5.83;4.90;;;20.10;99.90;;;;;;6228823;28;20244;-68
2022/08/30 01:32:30;;;;;;;5.83;5.13;;;20.10;99.90;;;;;;6228662;28;20728;-68
2022/08/30 01:35:46;;;;;;;4.47;4.07;;;20.10;99.90;;;;;;6228868;28;20248;-68
2022/08/30 01:38:53;;;;;;;4.80;4.40;;;20.10;99.90;;;;;;6228603;28;20703;-68
2022/08/30 01:41:57;;;;;;;5.53;4.90;;;20.10;99.90;;;;;;6227240;28;20259;-68
2022/08/30 01:45:00;;;;;;;5.37;4.87;;;20.00;99.90;;;;;;6226986;28;20236;-67
2022/08/30 01:48:03;;;;;;;6.50;4.77;;;20.00;99.90;;;;;;6227149;28;20236;-68
2022/08/30 01:51:10;;;;;;;6.17;4.57;;;20.00;99.90;;;;;;6228937;28;20221;-68
2022/08/30 01:54:15;;;;;;;5.30;4.90;;;19.90;99.90;;;;;;6228781;28;20236;-67
2022/08/30 01:57:21;;;;;;;7.53;4.77;;;19.90;99.90;;;;;;6228055;28;20247;-67
2022/08/30 02:00:25;;;;;;;9.30;5.83;;;19.90;99.90;;;;;;6228187;28;20680;-68
2022/08/30 02:03:32;;;;;;;9.00;4.40;;;19.90;99.90;;;;;;6228123;28;20240;-67
2022/08/30 02:06:37;;;;;;;7.47;6.03;;;19.90;99.90;;;;;;6217036;28;20626;-68
2022/08/30 02:09:42;;;;;;;6.33;5.70;;;19.90;99.90;;;;;;6226086;28;20237;-68
2022/08/30 02:12:48;;;;;;;5.90;5.40;;;19.90;99.90;;;;;;6226306;28;20240;-68
2022/08/30 02:15:53;;;;;;;7.50;5.73;;;19.80;99.90;;;;;;6228470;28;20692;-67
2022/08/30 02:18:56;;;;;;;8.40;5.87;;;19.80;99.90;;;;;;6228923;28;20692;-67
2022/08/30 02:22:00;;;;;;;9.00;7.20;;;19.80;99.90;;;;;;6228795;28;20657;-67
2022/08/30 02:25:06;;;;;;;8.87;7.20;;;19.90;99.90;;;;;;6229130;28;20233;-67
2022/08/30 02:28:22;;;;;;;6.37;5.73;;;19.90;99.90;;;;;;6227831;28;20542;-67
2022/08/30 02:31:26;;;;;;;6.30;5.70;;;19.80;99.90;;;;;;6228449;28;20225;-68
2022/08/30 02:34:29;;;;;;;6.37;5.60;;;19.90;99.90;;;;;;6228394;28;20229;-67
2022/08/30 02:37:32;;;;;;;5.83;5.27;;;19.80;99.90;;;;;;6228160;28;20225;-67
2022/08/30 02:40:37;;;;;;;8.70;5.33;;;19.80;99.90;;;;;;6228332;28;20704;-68
2022/08/30 02:43:41;;;;;;;6.73;5.33;;;19.70;99.90;;;;;;6228502;28;20250;-68
2022/08/30 02:46:44;;;;;;;7.57;6.03;;;19.70;99.90;;;;;;6227453;28;20237;-68
2022/08/30 02:49:47;;;;;;;6.77;5.37;;;19.70;99.90;;;;;;6227468;28;20237;-67
2022/08/30 02:52:51;;;;;;;7.97;5.40;;;19.70;99.90;;;;;;6227240;28;20243;-68
2022/08/30 02:55:57;;;;;;;7.53;6.77;;;19.70;99.90;;;;;;6227671;28;20573;-67
2022/08/30 02:59:01;;;;;;;7.23;5.57;;;19.70;99.90;;;;;;6228087;28;20553;-67
2022/08/30 03:02:04;;;;;;;6.53;5.83;;;19.70;99.90;;;;;;6227859;28;20228;-68
2022/08/30 03:05:08;;;;;;;6.70;5.47;;;19.70;99.90;;;;;;6228528;28;20229;-67
2022/08/30 03:08:11;;;;;;;6.63;5.60;;;19.70;99.90;;;;;;6218774;28;20220;-67
2022/08/30 03:11:15;;;;;;;6.73;5.00;;;19.80;99.90;;;;;;6227613;28;20236;-68
2022/08/30 03:14:18;;;;;;;6.33;5.83;;;19.70;99.90;;;;;;6227833;28;20209;-68
2022/08/30 03:17:22;;;;;;;6.70;5.60;;;19.70;99.90;;;;;;6227649;28;21674;-67
2022/08/30 03:20:25;;;;;;;5.60;5.17;;;19.70;99.90;;;;;;6227824;28;20228;-67
2022/08/30 03:23:29;;;;;;;5.17;4.77;;;19.70;99.90;;;;;;6227036;28;20703;-67
2022/08/30 03:26:33;;;;;;;5.93;5.33;;;19.60;99.90;;;;;;6227246;28;20236;-68
2022/08/30 03:29:36;;;;;;;5.73;5.33;;;19.60;99.90;;;;;;6226995;28;20233;-68
2022/08/30 03:32:40;;;;;;;6.40;5.60;;;19.50;99.90;;;;;;6226783;28;20239;-68
2022/08/30 03:35:45;;;;;;;5.00;4.60;;;19.50;99.90;;;;;;6227480;28;20233;-68
2022/08/30 03:38:48;;;;;;;6.37;5.57;;;19.50;99.90;;;;;;6227063;28;20237;-68
2022/08/30 03:41:53;;;;;;;6.70;4.97;;;19.40;99.90;;;;;;6227144;28;20236;-68
2022/08/30 03:44:56;;;;;;;6.13;5.63;;;19.50;99.90;;;;;;6227082;28;20243;-67
2022/08/30 03:48:01;;;;;;;5.97;5.37;;;19.40;99.90;;;;;;6227169;28;20800;-67
2022/08/30 03:51:04;;;;;;;8.10;6.13;;;19.40;99.90;;;;;;6226163;28;20233;-68
2022/08/30 03:54:08;;;;;;;5.60;5.20;;;19.40;99.90;;;;;;6225826;28;20221;-69
2022/08/30 03:57:12;;;;;;;6.10;5.50;;;19.30;99.90;;;;;;6225776;28;20236;-68
2022/08/30 04:00:22;;;;;;;6.40;5.90;;;19.30;99.90;;;;;;6224046;28;20344;-68
2022/08/30 04:03:25;;;;;;;5.50;5.00;;;19.30;99.90;;;;;;6226063;28;20794;-68
2022/08/30 04:06:28;;;;;;;5.67;5.17;;;19.30;99.90;;;;;;6226604;28;20259;-68
2022/08/30 04:09:31;;;;;;;9.97;6.07;;;19.20;99.90;;;;;;6226181;28;20229;-68
2022/08/30 04:12:36;;;;;;;6.90;5.73;;;19.20;99.90;;;;;;6221883;28;20225;-68
2022/08/30 04:15:40;;;;;;;7.80;5.03;;;19.20;99.90;;;;;;6226228;28;20575;-67
2022/08/30 04:18:43;;;;;;;5.93;5.43;;;19.20;99.90;;;;;;6226272;28;20237;-67
2022/08/30 04:21:46;;;;;;;5.73;5.23;;;19.10;99.90;;;;;;6226250;28;20224;-68
2022/08/30 04:24:50;;;;;;;6.40;5.57;;;19.00;99.90;;;;;;6225985;28;20244;-67
2022/08/30 04:27:54;;;;;;;5.80;5.30;;;19.00;99.90;;;;;;6226026;28;20555;-67
2022/08/30 04:30:57;;;;;;;6.23;5.63;;;19.00;99.90;;;;;;6226015;28;20229;-67
2022/08/30 04:34:01;;;;;;;6.40;5.80;;;19.00;99.90;;;;;;6225851;28;20229;-67
2022/08/30 04:37:04;;;;;;;6.00;5.50;;;19.10;99.90;;;;;;6225901;28;20252;-71
2022/08/30 04:40:12;;;;;;;5.90;5.40;;;19.00;99.90;;;;;;6226009;28;20232;-68
2022/08/30 04:43:17;;;;;;;6.27;5.77;;;19.00;99.90;;;;;;6225507;28;20845;-67
2022/08/30 04:46:20;;;;;;;6.73;6.17;;;19.00;99.90;;;;;;6225449;28;20233;-67
2022/08/30 04:49:23;;;;;;;6.27;5.77;;;19.10;99.90;;;;;;6224664;28;20229;-67
2022/08/30 04:52:28;;;;;;;7.93;6.90;;;19.10;99.90;;;;;;6225497;28;20696;-67
2022/08/30 04:55:31;;;;;;;7.43;6.77;;;19.20;99.90;;;;;;6225323;28;20237;-67
2022/08/30 04:58:36;;;;;;;5.80;5.30;;;19.20;99.90;;;;;;6225537;28;20240;-68
2022/08/30 05:01:40;;;;;;;8.60;6.40;;;19.20;99.90;;;;;;6225515;28;20221;-68
2022/08/30 05:08:05;;;;;;;7.03;6.33;;;19.30;99.90;;;;;;6224920;28;20209;-68
2022/08/30 05:11:09;;;;;;;5.97;5.47;;;19.30;99.90;;;;;;6225241;28;20683;-67
2022/08/30 05:14:14;;;;;;;6.40;5.73;;;19.30;99.90;;;;;;6221055;28;20205;-67
2022/08/30 05:17:17;;;;;;;6.00;5.50;;;19.40;99.90;;;;;;6225442;28;20240;-67
2022/08/30 05:20:20;;;;;;;7.13;6.43;;;19.40;99.90;;;;;;6225065;28;20212;-67
2022/08/30 05:23:23;;;;;;;7.10;6.50;;;19.40;99.90;;;;;;6225243;28;20571;-67
2022/08/30 05:26:28;;;;;;;7.40;6.80;;;19.50;99.90;;;;;;6225271;28;20248;-67
2022/08/30 05:29:33;;;;;;;7.00;6.30;;;19.60;99.90;;;;;;6224918;28;20685;-68
2022/08/30 05:32:37;;;;;;;7.80;6.20;;;19.70;99.90;;;;;;6225070;28;20549;-67
2022/08/30 05:35:40;;;;;;;7.50;6.70;;;19.80;99.90;;;;;;6224870;28;20237;-67
2022/08/30 05:38:43;;;;;;;7.93;6.17;;;19.80;99.90;;;;;;6225025;28;20229;-68
2022/08/30 05:41:47;;;;;;;9.20;6.77;;;19.90;99.90;;;;;;6224865;28;20240;-68
2022/08/30 05:44:54;;;;;;;7.07;6.43;;;19.90;99.90;;;;;;6225102;28;20320;-67
2022/08/30 05:47:57;;;;;;;8.97;6.33;;;20.00;99.90;;;;;;6224577;28;20229;-67
2022/08/30 05:51:09;;;;;;;8.67;7.20;;;20.20;99.90;;;;;;6224584;28;20321;-67
2022/08/30 05:54:14;;;;;;;8.77;7.13;;;20.30;99.90;;;;;;6224613;28;20229;-68
2022/08/30 05:57:17;;;;;;;7.57;6.77;;;20.40;99.90;;;;;;6224391;28;20233;-68
2022/08/30 06:00:22;;;;;;;10.87;7.50;;;20.50;99.90;;;;;;6225163;28;20235;-67
2022/08/30 06:03:25;;;;;;;8.43;7.50;;;20.70;99.90;;;;;;6229749;28;20240;-67
2022/08/30 06:06:29;;;;;;;6.67;6.17;;;20.90;99.90;;;;;;6229428;28;20247;-68
2022/08/30 06:09:33;;;;;;;8.43;7.20;;;21.00;99.90;;;;;;6228490;28;20225;-68
2022/08/30 06:12:36;;;;;;;10.23;7.87;;;21.20;99.90;;;;;;6228730;28;20519;-68
2022/08/30 06:15:42;;;;;;;10.10;7.83;;;21.20;99.90;;;;;;6228633;28;20689;-68
2022/08/30 06:18:46;;;;;;;7.90;7.23;;;21.20;99.90;;;;;;6228941;28;20229;-68
2022/08/30 06:21:51;;;;;;;10.00;8.30;;;21.20;99.90;;;;;;6219787;28;20634;-68
2022/08/30 06:24:54;;;;;;;8.70;7.83;;;21.30;99.90;;;;;;6228158;28;20233;-68
2022/08/30 06:28:00;;;;;;;7.90;7.07;;;21.40;99.90;;;;;;6228633;28;20229;-68
2022/08/30 06:31:07;;;;;;;9.90;8.00;;;21.40;99.90;;;;;;6228627;28;20553;-68
2022/08/30 06:34:11;;;;;;;8.53;7.63;;;21.50;99.90;;;;;;6227946;28;20677;-67
2022/08/30 06:37:14;;;;;;;9.10;6.97;;;22.00;99.90;;;;;;6228657;28;20340;-67
2022/08/30 06:40:32;;;;;;;11.03;6.57;;;23.10;99.90;;;;;;6228413;28;20238;-67
2022/08/30 06:43:36;;;;;;;7.73;7.03;;;24.90;99.90;;;;;;6227870;28;20714;-67
2022/08/30 06:46:40;;;;;;;6.93;6.33;;;26.30;99.90;;;;;;6227463;28;20560;-67
2022/08/30 06:49:43;;;;;;;7.43;6.30;;;27.80;98.60;;;;;;6227780;28;20295;-67
2022/08/30 06:52:47;;;;;;;5.80;5.30;;;28.80;95.80;;;;;;6227661;28;20220;-68
2022/08/30 06:55:56;;;;;;;6.60;6.07;;;29.50;92.60;;;;;;6227458;28;20255;-68
2022/08/30 06:58:59;;;;;;;7.80;6.70;;;29.80;91.40;;;;;;6225786;28;20228;-68
2022/08/30 07:02:05;;;;;;;6.87;6.27;;;30.70;87.70;;;;;;6227534;28;20520;-70
2022/08/30 07:05:10;;;;;;;6.93;6.33;;;31.40;83.50;;;;;;6227813;28;20213;-66
2022/08/30 07:08:18;;;;;;;7.90;7.20;;;31.50;80.10;;;;;;6227177;28;20189;-66
2022/08/30 07:11:30;;;;;;;6.63;6.13;;;30.50;79.90;;;;;;6225946;28;20217;-66
2022/08/30 07:14:33;;;;;;;12.23;8.90;;;29.70;84.00;;;;;;6226202;28;20224;-66
2022/08/30 07:20:58;;;;;;;6.75;6.25;;;32.00;78.90;;;;;;6227915;28;20232;-66
2022/08/30 07:24:02;;;;;;;7.63;5.88;;;34.00;71.10;;;;;;6218135;28;20229;-66
2022/08/30 07:27:09;;;;;;;9.32;8.52;;;35.40;66.00;;;;;;6227650;28;20251;-66
2022/08/30 07:30:13;;;;;;;6.38;5.97;;;36.90;59.40;;;;;;6227307;28;20564;-66
2022/08/30 07:33:17;;;;;;;7.25;5.70;;;38.20;54.80;;;;;;6227610;28;20233;-66
2022/08/30 07:36:21;;;;;;;9.90;5.82;;;39.00;50.50;;;;;;6227011;28;20578;-66
2022/08/30 07:39:25;;;;;;;7.85;6.53;;;39.60;48.90;;;;;;6227099;28;20665;-66
2022/08/30 07:42:28;;;;;;;6.00;5.60;;;40.60;46.10;;;;;;6227221;28;20263;-66
2022/08/30 07:45:31;;;;;;;6.60;6.00;;;41.50;44.10;;;;;;6227671;28;20286;-66
2022/08/30 07:48:38;;;;;;;10.82;8.20;;;42.30;42.90;;;;;;6227146;28;20228;-67
2022/08/30 07:51:42;;;;;;;6.00;5.50;;;42.00;40.40;;;;;;6224498;28;20236;-67
2022/08/30 07:54:45;;;;;;;5.22;4.82;;;41.80;40.90;;;;;;6226408;28;20229;-67
2022/08/30 07:57:55;;;;;;;5.82;5.32;;;41.40;40.80;;;;;;6226241;28;20645;-67
2022/08/30 08:00:59;;;;;;;4.85;4.55;;;42.30;39.90;;;;;;6226518;28;20238;-67
2022/08/30 08:04:03;;;;;;;6.50;5.90;;;43.30;38.20;;;;;;6226529;28;20232;-67
2022/08/30 08:07:07;;;;;;;6.03;5.55;;;43.80;36.50;;;;;;6225056;28;20238;-67
2022/08/30 08:10:12;;;;;;;5.68;5.28;;;42.70;37.20;;;;;;6224359;28;20229;-67
2022/08/30 08:13:15;;;;;;;5.88;5.38;;;43.50;37.00;;;;;;6224093;28;20254;-67
2022/08/30 08:16:20;;;;;;;5.50;5.00;;;44.20;35.50;;;;;;6224895;28;20224;-67
2022/08/30 08:19:25;;;;;;;5.72;5.25;;;44.90;33.80;;;;;;6223979;28;20232;-67
2022/08/30 08:22:28;;;;;;;5.65;5.22;;;45.80;32.90;;;;;;6223896;28;20239;-67
2022/08/30 08:25:31;;;;;;;6.15;5.63;;;46.10;31.00;;;;;;6224257;28;20677;-67
2022/08/30 08:28:35;;;;;;;5.07;4.68;;;45.70;31.10;;;;;;6221353;28;20247;-67
2022/08/30 08:31:40;;;;;;;6.07;5.65;;;44.00;32.20;;;;;;6225744;28;20243;-67
2022/08/30 08:34:44;;;;;;;6.05;5.65;;;43.40;32.80;;;;;;6226041;28;20240;-67
2022/08/30 08:37:49;;;;;;;6.53;5.70;;;43.60;33.40;;;;;;6225540;28;20239;-67
2022/08/30 08:41:03;;;;;;;5.75;5.22;;;45.30;32.10;;;;;;6225870;28;20243;-66
2022/08/30 08:44:13;;;;;;;5.32;4.82;;;46.40;29.90;;;;;;6224912;28;20220;-66
2022/08/30 08:47:21;;;;;;;5.80;5.20;;;46.80;29.20;;;;;;6225879;28;20311;-66
2022/08/30 08:50:26;;;;;;;5.45;4.97;;;47.80;28.10;;;;;;6226757;28;20283;-66
2022/08/30 08:53:36;;;;;;;6.35;5.30;;;48.30;27.90;;;;;;6249880;28;20668;-66
2022/08/30 08:56:54;;;;;;;5.18;4.72;;;49.50;26.90;;;;;;6249769;28;20615;-66
2022/08/30 08:59:58;;;;;;;5.90;5.30;;;50.20;26.00;;;;;;6228015;28;20228;-66
2022/08/30 09:03:04;;;;;;;4.95;4.55;;;50.40;25.40;;;;;;6225528;28;20239;-65
2022/08/30 09:06:27;;;;;;;5.10;4.70;;;51.80;24.80;;;;;;6225288;28;20243;-66
2022/08/30 09:09:33;;;;;;;4.40;4.00;;;51.60;23.90;;;;;;6225386;28;20230;-67
2022/08/30 09:12:37;;;;;;;6.05;4.82;;;49.60;25.10;;;;;;6225727;28;20245;-66
2022/08/30 09:15:41;;;;;;;4.97;4.57;;;50.60;24.80;;;;;;6225011;28;20696;-67
2022/08/30 09:18:49;;;;;;;5.13;4.63;;;50.80;24.20;;;;;;6225315;28;20228;-66
2022/08/30 09:22:00;;;;;;;4.88;4.57;;;51.50;24.50;;;;;;6224797;28;20311;-68
2022/08/30 09:25:09;;;;;;;5.13;4.63;;;51.80;24.20;;;;;;6225095;28;20250;-65
2022/08/30 09:28:14;;;;;;;4.82;4.53;;;52.50;23.70;;;;;;6227815;28;20231;-65
2022/08/30 09:31:20;;;;;;;5.00;4.60;;;53.10;23.40;;;;;;6227669;28;20227;-65
2022/08/30 09:34:25;;;;;;;5.03;4.38;;;52.20;23.80;;;;;;6217080;28;20231;-65
2022/08/30 09:37:34;;;;;;;5.55;5.20;;;50.90;24.40;;;;;;6228682;28;20246;-65
2022/08/30 09:40:39;;;;;;;5.30;4.75;;;48.60;25.50;;;;;;6229491;28;20705;-69
2022/08/30 09:43:43;;;;;;;5.20;4.90;;;45.70;27.40;;;;;;6229606;28;20233;-68
2022/08/30 09:46:49;;;;;;;6.20;5.80;;;43.00;29.80;;;;;;6230135;28;20302;-69
2022/08/30 09:50:04;;;;;;;5.68;4.75;;;41.20;32.80;;;;;;6230799;28;20232;-68
2022/08/30 09:53:17;;;;;;;7.63;5.32;;;39.80;35.10;;;;;;6228955;28;20417;-69
2022/08/30 09:56:33;;;;;;;5.07;4.57;;;38.80;36.90;;;;;;6229769;28;20247;-66
2022/08/30 09:59:47;;;;;;;5.90;5.40;;;37.80;36.70;;;;;;6229670;28;20229;-66
2022/08/30 10:03:18;;;;;;;5.07;4.68;;;36.80;38.50;;;;;;6229228;28;20239;-66
2022/08/30 10:06:44;;;;;;;4.78;4.38;;;36.00;39.60;;;;;;6228489;28;20236;-66
2022/08/30 10:09:57;;;;;;;6.57;5.97;;;35.20;40.80;;;;;;6227980;28;20225;-66
2022/08/30 10:13:17;;;;;;;5.85;5.22;;;33.90;43.10;;;;;;6227832;28;20223;-66
2022/08/30 10:16:33;;;;;;;5.35;4.85;;;33.40;44.80;;;;;;6227350;28;20588;-67
2022/08/30 10:19:51;;;;;;;8.18;5.40;;;32.70;46.10;;;;;;6226206;28;20225;-66
2022/08/30 10:23:00;;;;;;;6.82;5.20;;;32.30;46.70;;;;;;6227114;28;20258;-66
2022/08/30 10:26:12;;;;;;;6.45;5.95;;;31.60;48.50;;;;;;6226437;28;20232;-66
2022/08/30 10:29:28;;;;;;;4.88;4.57;;;31.00;49.40;;;;;;6226945;28;20228;-66
2022/08/30 10:32:39;;;;;;;5.88;5.38;;;30.90;50.10;;;;;;6227289;28;20323;-66
2022/08/30 10:35:46;;;;;;;5.63;5.13;;;30.50;50.20;;;;;;6218218;28;20235;-67
2022/08/30 10:38:53;;;;;;;5.88;5.38;;;30.60;50.50;;;;;;6226184;28;20621;-66
2022/08/30 10:42:02;;;;;;;5.90;5.38;;;30.90;50.50;;;;;;6226589;28;20578;-66
2022/08/30 10:45:12;;;;;;;5.93;5.43;;;30.90;50.50;;;;;;6228309;28;20286;-67
2022/08/30 10:48:19;;;;;;;6.05;5.20;;;30.90;50.60;;;;;;6227480;28;20231;-66
2022/08/30 10:51:27;;;;;;;5.78;5.18;;;30.70;50.30;;;;;;6227889;28;20228;-66
2022/08/30 10:54:36;;;;;;;5.13;4.65;;;30.90;50.50;;;;;;6228544;28;20247;-67
2022/08/30 10:57:41;;;;;;;5.40;4.90;;;30.90;50.80;;;;;;6227668;28;20232;-66
2022/08/30 11:01:06;;;;;;;5.50;5.10;;;30.90;50.90;;;;;;6227313;28;20243;-66
2022/08/30 11:04:34;;;;;;;5.82;5.22;;;30.90;51.00;;;;;;6225652;28;20286;-66
2022/08/30 11:07:46;;;;;;;5.22;4.72;;;30.90;51.30;;;;;;6225620;28;20382;-67
2022/08/30 11:10:59;;;;;;;5.97;5.38;;;30.90;51.20;;;;;;6225922;28;20852;-67
2022/08/30 11:14:05;;;;;;;6.38;5.53;;;31.10;50.90;;;;;;6227230;28;20664;-67
2022/08/30 11:17:24;;;;;;;6.18;5.57;;;31.20;50.90;;;;;;6226901;28;20229;-66
2022/08/30 11:20:40;;;;;;;5.68;5.07;;;31.20;49.90;;;;;;6227870;28;20225;-66
2022/08/30 11:23:59;;;;;;;5.10;4.70;;;31.30;50.70;;;;;;6227411;28;20247;-66
2022/08/30 11:27:03;;;;;;;6.05;5.55;;;31.10;51.10;;;;;;6226801;28;20228;-66
2022/08/30 11:30:40;;;;;;;5.50;5.00;;;31.00;51.10;;;;;;6225346;28;20545;-70
2022/08/30 11:33:47;;;;;;;6.13;5.53;;;31.10;51.40;;;;;;6226163;28;20229;-65
2022/08/30 11:37:03;;;;;;;6.25;5.75;;;31.30;50.70;;;;;;6227103;28;20239;-69
2022/08/30 11:40:49;;;;;;;5.78;5.28;;;31.20;50.90;;;;;;6222608;28;20232;-68
2022/08/30 11:43:54;;;;;;;8.32;5.68;;;31.10;51.90;;;;;;6226779;28;20574;-69
2022/08/30 11:46:59;;;;;;;5.68;5.15;;;30.60;52.00;;;;;;6227048;28;20255;-69
2022/08/30 11:50:09;;;;;;;7.50;6.40;;;30.50;52.90;;;;;;6226801;28;20232;-69
2022/08/30 11:53:24;;;;;;;6.40;5.90;;;30.00;53.20;;;;;;6226402;28;20247;-68
2022/08/30 11:56:34;;;;;;;6.50;5.90;;;29.60;53.70;;;;;;6226118;28;20243;-68
2022/08/30 11:59:49;;;;;;;6.30;5.80;;;29.50;54.80;;;;;;6226621;28;20228;-68
2022/08/30 12:02:56;;;;;;;5.80;5.20;;;29.70;55.40;;;;;;6226417;28;20230;-68
2022/08/30 12:06:04;;;;;;;5.65;5.15;;;29.70;55.00;;;;;;6227104;28;20307;-69
2022/08/30 12:09:09;;;;;;;5.00;4.60;;;30.00;54.00;;;;;;6227794;28;20228;-68
2022/08/30 12:12:59;;;;;;;6.15;5.55;;;30.10;52.40;;;;;;6226852;28;20220;-68
2022/08/30 12:16:04;;;;;;;6.43;5.15;;;30.30;53.10;;;;;;6226475;28;20232;-69
2022/08/30 12:19:17;;;;;;;5.80;5.32;;;30.40;52.90;;;;;;6225745;28;20955;-67
2022/08/30 12:22:22;;;;;;;5.97;5.47;;;30.60;52.50;;;;;;6226054;28;20228;-67
2022/08/30 12:25:29;;;;;;;6.00;5.50;;;30.60;52.10;;;;;;6227454;28;20563;-68
2022/08/30 12:28:32;;;;;;;5.75;5.25;;;30.80;52.30;;;;;;6229136;28;20240;-68
2022/08/30 12:31:40;;;;;;;5.38;4.97;;;30.60;52.80;;;;;;6225792;28;20556;-68
2022/08/30 12:34:53;;;;;;;4.88;4.47;;;30.80;52.10;;;;;;6225640;28;20229;-69
2022/08/30 12:38:00;;;;;;;5.80;5.35;;;31.00;51.80;;;;;;6225262;28;20234;-68
2022/08/30 12:41:03;;;;;;;6.13;5.60;;;31.20;51.40;;;;;;6225059;28;20257;-68
2022/08/30 12:44:12;;;;;;;4.95;4.55;;;31.10;51.20;;;;;;6218187;28;20224;-69
2022/08/30 12:47:19;;;;;;;6.05;5.43;;;31.10;51.30;;;;;;6224895;28;20300;-67
2022/08/30 12:50:26;;;;;;;5.63;5.13;;;31.10;50.80;;;;;;6220886;28;20223;-68
2022/08/30 12:53:33;;;;;;;26.73;8.95;;;31.00;50.50;;;;;;6224986;28;20228;-68
2022/08/30 12:56:55;;;;;;;5.82;4.75;;;31.10;50.70;;;;;;6225163;28;20235;-68
2022/08/30 12:59:59;;;;;;;5.22;4.60;;;31.30;49.40;;;;;;6223624;28;20551;-68
2022/08/30 13:03:29;;;;;;;11.73;5.03;;;31.50;48.90;;;;;;6224351;28;20232;-68
2022/08/30 13:06:48;;;;;;;6.50;5.00;;;31.60;48.70;;;;;;6223865;28;20228;-68
2022/08/30 13:10:01;;;;;;;5.63;5.13;;;31.40;49.10;;;;;;6223540;28;20220;-70
2022/08/30 13:13:06;;;;;;;5.38;4.97;;;31.60;49.00;;;;;;6225324;28;20229;-70
2022/08/30 13:16:24;;;;;;;5.72;5.22;;;31.40;49.90;;;;;;6225001;28;20235;-70
2022/08/30 13:19:34;;;;;;;7.60;5.68;;;31.50;49.70;;;;;;6224813;28;20565;-70
2022/08/30 13:22:39;;;;;;;5.90;5.47;;;31.40;49.30;;;;;;6224574;28;20230;-70
2022/08/30 13:25:44;;;;;;;6.88;5.07;;;31.50;49.60;;;;;;6223376;28;20247;-69
2022/08/30 13:28:49;;;;;;;5.10;4.70;;;31.50;49.10;;;;;;6223886;28;20303;-69
2022/08/30 13:31:53;;;;;;;5.40;4.63;;;31.30;50.10;;;;;;6223337;28;20367;-68
2022/08/30 13:34:56;;;;;;;5.55;5.15;;;31.00;50.90;;;;;;6223924;28;20307;-68
2022/08/30 13:38:02;;;;;;;6.47;5.43;;;31.10;51.70;;;;;;6225020;28;20234;-68
2022/08/30 13:41:07;;;;;;;6.50;5.90;;;30.90;51.80;;;;;;6224589;28;20290;-68
2022/08/30 13:44:12;;;;;;;4.85;4.45;;;30.30;52.70;;;;;;6225020;28;20231;-68
2022/08/30 13:47:18;;;;;;;6.35;5.75;;;30.10;52.70;;;;;;6219919;28;20302;-68
2022/08/30 13:50:39;;;;;;;5.20;4.80;;;30.20;52.30;;;;;;6223312;28;20540;-68
2022/08/30 13:53:42;;;;;;;5.30;4.80;;;30.20;52.80;;;;;;6222308;28;20235;-67
2022/08/30 13:57:02;;;;;;;6.50;5.20;;;29.90;53.30;;;;;;6221662;28;20237;-68
2022/08/30 14:00:09;;;;;;;5.53;5.13;;;29.50;54.40;;;;;;6222094;28;20329;-68
2022/08/30 14:03:15;;;;;;;5.97;5.47;;;29.50;54.80;;;;;;6222562;28;20696;-68
2022/08/30 14:06:18;;;;;;;5.70;5.20;;;29.60;54.20;;;;;;6223366;28;20252;-68
2022/08/30 14:09:36;;;;;;;5.50;5.10;;;29.70;54.00;;;;;;6224525;28;20243;-68
2022/08/30 14:12:40;;;;;;;5.70;5.20;;;29.60;54.30;;;;;;6224631;28;20239;-68
2022/08/30 14:16:06;;;;;;;6.13;5.53;;;29.60;54.40;;;;;;6224013;28;20265;-68
2022/08/30 14:19:29;;;;;;;7.13;5.00;;;29.70;54.60;;;;;;6224207;28;20233;-68
2022/08/30 14:22:32;;;;;;;6.40;5.80;;;29.60;54.90;;;;;;6226587;28;20224;-68
2022/08/30 14:25:35;;;;;;;9.03;6.00;;;29.60;54.90;;;;;;6228384;28;20229;-68
2022/08/30 14:28:40;;;;;;;6.93;5.27;;;29.50;54.50;;;;;;6228597;28;20236;-68
2022/08/30 14:31:47;;;;;;;5.63;5.20;;;29.40;55.10;;;;;;6228223;28;20231;-67
2022/08/30 14:34:52;;;;;;;7.07;5.57;;;29.40;55.40;;;;;;6228132;28;20225;-67
2022/08/30 14:37:55;;;;;;;5.40;5.00;;;29.30;55.10;;;;;;6228110;28;20228;-68
2022/08/30 14:40:59;;;;;;;6.83;5.83;;;29.30;55.30;;;;;;6228463;28;20243;-68
2022/08/30 14:44:04;;;;;;;6.23;5.63;;;29.20;54.50;;;;;;6228232;28;20239;-67
2022/08/30 14:47:08;;;;;;;6.50;5.90;;;29.20;55.30;;;;;;6228083;28;20239;-67
2022/08/30 14:50:12;;;;;;;5.80;5.30;;;29.10;55.90;;;;;;6225222;28;20210;-67
2022/08/30 14:53:16;;;;;;;5.77;5.27;;;29.10;56.00;;;;;;6211784;28;20208;-67
2022/08/30 14:56:21;;;;;;;5.47;4.97;;;29.00;56.20;;;;;;6227491;28;20240;-69
2022/08/30 14:59:26;;;;;;;5.93;5.30;;;29.00;56.10;;;;;;6228680;28;20201;-69
2022/08/30 15:02:29;;;;;;;5.20;4.80;;;29.10;56.10;;;;;;6228206;28;20233;-68
2022/08/30 15:05:32;;;;;;;7.70;5.50;;;29.30;55.40;;;;;;6227658;28;20551;-68
2022/08/30 15:08:37;;;;;;;6.30;5.27;;;29.30;55.90;;;;;;6227274;28;20224;-68
2022/08/30 15:11:42;;;;;;;6.47;5.87;;;29.40;55.40;;;;;;6227997;28;20228;-68
2022/08/30 15:14:47;;;;;;;6.47;5.47;;;29.20;55.50;;;;;;6227598;28;20233;-68
2022/08/30 15:17:50;;;;;;;5.97;5.47;;;29.20;56.00;;;;;;6227853;28;20228;-68
2022/08/30 15:20:53;;;;;;;6.30;5.23;;;29.40;55.60;;;;;;6227446;28;20299;-68
2022/08/30 15:23:58;;;;;;;5.80;5.20;;;29.50;55.50;;;;;;6227627;28;20220;-68
2022/08/30 15:27:03;;;;;;;6.47;5.53;;;29.40;55.10;;;;;;6227438;28;20324;-68
2022/08/30 15:30:11;;;;;;;5.77;5.37;;;29.10;55.50;;;;;;6227181;28;20228;-68
2022/08/30 15:33:16;;;;;;;5.10;4.70;;;29.00;56.00;;;;;;6226317;28;20231;-68
2022/08/30 15:36:19;;;;;;;6.27;5.77;;;28.90;55.80;;;;;;6226867;28;20685;-68
2022/08/30 15:39:23;;;;;;;5.37;4.97;;;28.70;56.20;;;;;;6226930;28;20232;-68
2022/08/30 15:42:27;;;;;;;6.40;5.80;;;28.30;56.80;;;;;;6227220;28;20228;-68
2022/08/30 15:45:31;;;;;;;5.20;4.80;;;28.10;57.40;;;;;;6227107;28;20239;-68
2022/08/30 15:48:35;;;;;;;6.33;5.73;;;28.10;57.80;;;;;;6226871;28;20739;-68
2022/08/30 15:51:48;;;;;;;6.13;5.63;;;28.10;58.10;;;;;;6220489;28;20561;-68
2022/08/30 15:54:54;;;;;;;5.20;4.80;;;28.00;58.50;;;;;;6226451;28;20232;-68
2022/08/30 15:57:57;;;;;;;6.73;6.13;;;27.90;58.30;;;;;;6217877;28;20251;-68
2022/08/30 16:01:03;;;;;;;5.60;5.10;;;27.90;58.70;;;;;;6226426;28;20298;-68
2022/08/30 16:04:07;;;;;;;6.13;5.53;;;27.80;59.00;;;;;;6226544;28;20252;-68
2022/08/30 16:07:10;;;;;;;8.60;6.07;;;27.80;59.70;;;;;;6226132;28;20560;-68
2022/08/30 16:10:14;;;;;;;6.17;5.67;;;27.80;59.70;;;;;;6226508;28;20239;-68
2022/08/30 16:13:17;;;;;;;8.33;6.33;;;27.80;60.20;;;;;;6226035;28;20697;-68
2022/08/30 16:16:23;;;;;;;5.67;5.20;;;27.70;60.60;;;;;;6226055;28;20240;-67
2022/08/30 16:19:27;;;;;;;6.20;5.80;;;27.60;61.30;;;;;;6226307;28;20236;-67